createdAt,value
2023-04-11T00:00:00.000Z,9.27
2023-04-11T00:15:00.000Z,9.06
2023-04-11T00:30:00.000Z,9.12
2023-04-11T00:45:00.000Z,9.18
2023-04-11T01:00:00.000Z,8.72
2023-04-11T01:15:00.000Z,8.67
2023-04-11T01:30:00.000Z,7.98
2023-04-11T01:45:00.000Z,7.71
2023-04-11T02:00:00.000Z,7.54
2023-04-11T02:15:00.000Z,8.36
2023-04-11T02:30:00.000Z,8.08
2023-04-11T02:45:00.000Z,8.35
2023-04-11T03:00:00.000Z,8.02
2023-04-11T03:15:00.000Z,8.56
2023-04-11T03:30:00.000Z,7.67
2023-04-11T03:45:00.000Z,7.84
2023-04-11T04:00:00.000Z,8.68
2023-04-11T04:15:00.000Z,9.25
2023-04-11T04:30:00.000Z,9.21
2023-04-11T04:45:00.000Z,10.13
2023-04-11T05:00:00.000Z,9.67
2023-04-11T05:15:00.000Z,11.33
2023-04-11T05:30:00.000Z,8.86
2023-04-11T05:45:00.000Z,10.05
2023-04-11T06:00:00.000Z,10.25
2023-04-11T06:15:00.000Z,8.85
2023-04-11T06:30:00.000Z,9.68
2023-04-11T06:45:00.000Z,11.11
2023-04-11T07:00:00.000Z,12.22
2023-04-11T07:15:00.000Z,13.76
2023-04-11T07:30:00.000Z,13.11
2023-04-11T07:45:00.000Z,11.74
2023-04-11T08:00:00.000Z,11.04
2023-04-11T08:15:00.000Z,12.48
2023-04-11T08:30:00.000Z,13.35
2023-04-11T08:45:00.000Z,17.68
2023-04-11T09:00:00.000Z,21.29
2023-04-11T09:15:00.000Z,16.79
2023-04-11T09:30:00.000Z,21.66
2023-04-11T09:45:00.000Z,10.66
2023-04-11T10:00:00.000Z,7.34
2023-04-11T10:15:00.000Z,7.64
2023-04-11T10:30:00.000Z,12.78
2023-04-11T10:45:00.000Z,4.85
2023-04-11T11:00:00.000Z,5.67
2023-04-11T11:15:00.000Z,5.33
2023-04-11T11:30:00.000Z,5.2
2023-04-11T11:45:00.000Z,13.94
2023-04-11T12:00:00.000Z,7.31
2023-04-11T12:15:00.000Z,5.66
2023-04-11T12:30:00.000Z,5.94
2023-04-11T12:45:00.000Z,7.87
2023-04-11T13:00:00.000Z,11.05
2023-04-11T13:15:00.000Z,11.05
2023-04-11T13:30:00.000Z,9.75
2023-04-11T13:45:00.000Z,7.29
2023-04-11T14:00:00.000Z,6.52
2023-04-11T14:15:00.000Z,9.59
2023-04-11T14:30:00.000Z,24.52
2023-04-11T14:45:00.000Z,26.77
2023-04-11T15:00:00.000Z,26
2023-04-11T15:15:00.000Z,23.84
2023-04-11T15:30:00.000Z,24.61
2023-04-11T15:45:00.000Z,24.52
2023-04-11T16:00:00.000Z,12.55
2023-04-11T16:15:00.000Z,11.6
2023-04-11T16:30:00.000Z,18.91
2023-04-11T16:45:00.000Z,22.27
2023-04-11T17:00:00.000Z,13.96
2023-04-11T17:15:00.000Z,15.05
2023-04-11T17:30:00.000Z,11.54
2023-04-11T17:45:00.000Z,10.06
2023-04-11T18:00:00.000Z,7.67
2023-04-11T18:15:00.000Z,7.92
2023-04-11T18:30:00.000Z,11.52
2023-04-11T18:45:00.000Z,16.25
2023-04-11T19:00:00.000Z,12.51
2023-04-11T19:15:00.000Z,16.07
2023-04-11T19:30:00.000Z,12.33
2023-04-11T19:45:00.000Z,19.28
2023-04-11T20:00:00.000Z,12.29
2023-04-11T20:15:00.000Z,16.93
2023-04-11T20:30:00.000Z,14.53
2023-04-11T20:45:00.000Z,9.56
2023-04-11T21:00:00.000Z,8.54
2023-04-11T21:15:00.000Z,6.53
2023-04-11T21:30:00.000Z,7.08
2023-04-11T21:45:00.000Z,7.02
2023-04-11T22:00:00.000Z,7.74
2023-04-11T22:15:00.000Z,7.52
2023-04-11T22:30:00.000Z,7.18
2023-04-11T22:45:00.000Z,7.31
2023-04-11T23:00:00.000Z,7.21
2023-04-11T23:15:00.000Z,7.09
2023-04-11T23:30:00.000Z,7.04
2023-04-11T23:45:00.000Z,7.26
